Time;durP1;ratioP1;P1;durP2;ratioP2;P2;SDS_P1;SDS_P2;PMS_P1;PMS_P2;Temp;Humidity;BMP_temperature;BMP_pressure;BME280_temperature;BME280_humidity;BME280_pressure;Samples;Min_cycle;Max_cycle;Signal;HPM_P1;HPM_P2
2021/10/29 00:02:20;;;;;;;;;;;;;;;2.31;73.97;102273.41;1919727;75;20115;-60
2021/10/29 00:04:47;;;;;;;;;;;;;;;2.23;74.42;102264.59;1919735;75;20157;-61
2021/10/29 00:07:15;;;;;;;;;;;;;;;2.17;74.86;102268.34;1919674;75;20114;-62
2021/10/29 00:09:43;;;;;;;;;;;;;;;2.10;75.06;102265.17;1919717;75;20131;-61
2021/10/29 00:12:11;;;;;;;;;;;;;;;2.12;74.61;102266.08;1919850;75;20103;-60
2021/10/29 00:14:40;;;;;;;;;;;;;;;2.14;74.21;102269.61;1919741;75;20374;-61
2021/10/29 00:17:08;;;;;;;;;;;;;;;2.10;75.10;102265.17;1919708;75;20393;-61
2021/10/29 00:19:37;;;;;;;;;;;;;;;2.09;74.82;102265.59;1919734;75;20189;-61
2021/10/29 00:22:05;;;;;;;;;;;;;;;2.11;74.46;102260.44;1919821;75;20370;-61
2021/10/29 00:24:33;;;;;;;;;;;;;;;2.10;74.44;102258.67;1919733;75;20189;-60
2021/10/29 00:27:01;;;;;;;;;;;;;;;2.04;75.08;102252.06;1919739;75;20114;-61
2021/10/29 00:29:29;;;;;;;;;;;;;;;1.99;75.84;102256.28;1919713;75;20106;-60
2021/10/29 00:31:57;;;;;;;;;;;;;;;1.95;75.88;102257.06;1919722;75;20114;-60
2021/10/29 00:34:25;;;;;;;;;;;;;;;1.90;75.69;102250.06;1919651;75;20123;-61
2021/10/29 00:36:52;;;;;;;;;;;;;;;1.85;76.01;102250.38;1919755;75;20380;-60
2021/10/29 00:39:20;;;;;;;;;;;;;;;1.82;76.41;102242.52;1919701;75;20119;-60
2021/10/29 00:41:48;;;;;;;;;;;;;;;1.80;76.52;102240.74;1919696;75;20146;-60
2021/10/29 00:44:17;;;;;;;;;;;;;;;1.80;76.61;102241.61;1919714;75;20102;-60
2021/10/29 00:46:45;;;;;;;;;;;;;;;1.79;76.74;102239.87;1919559;74;20114;-60
2021/10/29 00:49:13;;;;;;;;;;;;;;;1.80;76.88;102233.82;1919609;75;20153;-60
2021/10/29 00:51:40;;;;;;;;;;;;;;;1.77;76.81;102232.48;1919684;75;20369;-61
2021/10/29 00:54:08;;;;;;;;;;;;;;;1.80;76.71;102236.84;1919748;75;20122;-60
2021/10/29 00:56:36;;;;;;;;;;;;;;;1.78;76.71;102228.15;1919737;75;20103;-60
2021/10/29 00:59:04;;;;;;;;;;;;;;;1.78;76.34;102230.31;1919699;75;20181;-60
2021/10/29 01:01:32;;;;;;;;;;;;;;;1.78;76.45;102229.45;1919589;73;20114;-63
2021/10/29 01:04:00;;;;;;;;;;;;;;;1.75;76.46;102243.22;1919706;73;20115;-62
2021/10/29 01:06:28;;;;;;;;;;;;;;;1.75;76.28;102243.22;1919684;75;20141;-62
2021/10/29 01:08:56;;;;;;;;;;;;;;;1.74;76.14;102238.89;1919683;73;20149;-62
2021/10/29 01:11:24;;;;;;;;;;;;;;;1.68;76.17;102234.88;1919689;75;20157;-62
2021/10/29 01:13:51;;;;;;;;;;;;;;;1.64;76.50;102239.52;1919533;75;20157;-63
2021/10/29 01:16:21;;;;;;;;;;;;;;;1.61;76.88;102239.48;1919674;75;20189;-62
2021/10/29 01:18:49;;;;;;;;;;;;;;;1.59;77.26;102241.17;1919563;73;20233;-62
2021/10/29 01:21:17;;;;;;;;;;;;;;;1.57;77.72;102244.13;1919560;75;20149;-62
2021/10/29 01:23:45;;;;;;;;;;;;;;;1.55;77.84;102236.33;1919578;75;20145;-62
2021/10/29 01:26:14;;;;;;;;;;;;;;;1.59;77.57;102229.48;1919575;75;20149;-62
2021/10/29 01:28:42;;;;;;;;;;;;;;;1.60;77.72;102228.62;1919597;73;20118;-62
2021/10/29 01:31:10;;;;;;;;;;;;;;;1.60;77.73;102231.22;1919518;75;20145;-62
2021/10/29 01:33:38;;;;;;;;;;;;;;;1.60;77.59;102240.30;1919796;75;20353;-62
2021/10/29 01:36:06;;;;;;;;;;;;;;;1.62;77.32;102243.81;1919536;75;20193;-62
2021/10/29 01:38:39;;;;;;;;;;;;;;;1.62;77.22;102236.89;1919547;75;20381;-62
2021/10/29 01:41:07;;;;;;;;;;;;;;;1.63;77.31;102236.06;1919427;75;20162;-62
2021/10/29 01:43:39;;;;;;;;;;;;;;;1.65;77.00;102241.29;1919583;73;20170;-62
2021/10/29 01:46:07;;;;;;;;;;;;;;;1.62;77.27;102233.42;1918505;75;20102;-62
2021/10/29 01:48:38;;;;;;;;;;;;;;;1.55;77.72;102229.84;1919604;75;20130;-62
2021/10/29 01:51:06;;;;;;;;;;;;;;;1.53;77.46;102240.18;1911960;75;20119;-62
2021/10/29 01:53:33;;;;;;;;;;;;;;;1.47;77.73;102242.63;1919497;75;20166;-64
2021/10/29 01:56:02;;;;;;;;;;;;;;;1.41;77.59;102242.92;1919596;75;20114;-62
2021/10/29 01:58:29;;;;;;;;;;;;;;;1.40;77.36;102238.12;1919565;75;20118;-62
2021/10/29 02:00:57;;;;;;;;;;;;;;;1.39;77.75;102241.58;1919690;75;20102;-61
2021/10/29 02:03:25;;;;;;;;;;;;;;;1.33;77.79;102242.32;1919644;75;20106;-61
2021/10/29 02:05:53;;;;;;;;;;;;;;;1.31;77.90;102245.30;1919667;75;20144;-61
2021/10/29 02:08:24;;;;;;;;;;;;;;;1.30;77.82;102247.43;1919623;73;20194;-61
2021/10/29 02:10:51;;;;;;;;;;;;;;;1.26;78.10;102250.80;1919599;74;20115;-61
2021/10/29 02:13:19;;;;;;;;;;;;;;;1.22;77.92;102254.56;1919693;75;20381;-61
2021/10/29 02:15:47;;;;;;;;;;;;;;;1.19;78.14;102260.58;1919689;75;20102;-61
2021/10/29 02:18:16;;;;;;;;;;;;;;;1.17;78.44;102257.50;1919695;75;20145;-61
2021/10/29 02:20:44;;;;;;;;;;;;;;;1.13;78.35;102254.82;1919587;74;20203;-63
2021/10/29 02:23:13;;;;;;;;;;;;;;;1.11;78.24;102249.15;1919638;75;20102;-61
2021/10/29 02:25:46;;;;;;;;;;;;;;;1.10;78.12;102249.55;1919685;75;20392;-61
2021/10/29 02:28:14;;;;;;;;;;;;;;;1.08;78.07;102256.42;1919787;75;20103;-61
2021/10/29 02:30:43;;;;;;;;;;;;;;;1.07;78.02;102256.38;1919653;73;20118;-61
2021/10/29 02:33:11;;;;;;;;;;;;;;;1.06;77.96;102249.45;1919608;75;20436;-62
2021/10/29 02:35:39;;;;;;;;;;;;;;;1.04;78.39;102257.19;1919670;75;20111;-62
2021/10/29 02:38:08;;;;;;;;;;;;;;;1.02;78.64;102265.36;1919667;75;20145;-62
2021/10/29 02:40:36;;;;;;;;;;;;;;;1.02;78.49;102263.19;1919753;75;20368;-62
2021/10/29 02:43:04;;;;;;;;;;;;;;;1.05;78.23;102266.73;1919688;75;20200;-62
2021/10/29 02:45:31;;;;;;;;;;;;;;;1.06;78.31;102267.18;1919661;75;20102;-62
2021/10/29 02:48:00;;;;;;;;;;;;;;;1.05;78.45;102265.45;1914654;74;20185;-62
2021/10/29 02:50:28;;;;;;;;;;;;;;;1.01;78.37;102264.89;1910225;75;20123;-62
2021/10/29 02:52:55;;;;;;;;;;;;;;;0.98;78.68;102276.90;1910103;75;20154;-62
2021/10/29 02:55:23;;;;;;;;;;;;;;;0.97;78.49;102278.63;1910171;75;20119;-62
2021/10/29 02:57:51;;;;;;;;;;;;;;;0.96;78.85;102275.59;1910170;75;20114;-62
2021/10/29 03:00:19;;;;;;;;;;;;;;;0.92;79.21;102273.73;1910032;75;20189;-62
2021/10/29 03:02:47;;;;;;;;;;;;;;;0.93;79.21;102281.98;1910109;75;20119;-62
2021/10/29 03:05:15;;;;;;;;;;;;;;;0.96;78.93;102275.16;1910117;75;20162;-63
2021/10/29 03:07:43;;;;;;;;;;;;;;;1.00;78.85;102275.22;1910139;75;20119;-62
2021/10/29 03:10:12;;;;;;;;;;;;;;;1.02;78.83;102277.03;1910148;75;20111;-62
2021/10/29 03:12:41;;;;;;;;;;;;;;;1.04;78.80;102277.08;1910051;75;20405;-63
2021/10/29 03:15:10;;;;;;;;;;;;;;;1.06;78.72;102283.17;1910111;75;20162;-62
2021/10/29 03:17:38;;;;;;;;;;;;;;;1.08;78.79;102282.79;1910120;74;20378;-63
2021/10/29 03:20:07;;;;;;;;;;;;;;;1.05;78.88;102278.41;1910137;75;20405;-62
2021/10/29 03:22:34;;;;;;;;;;;;;;;1.02;79.04;102274.44;1910058;74;20420;-62
2021/10/29 03:25:03;;;;;;;;;;;;;;;1.01;78.96;102278.28;1910084;75;20119;-62
2021/10/29 03:27:31;;;;;;;;;;;;;;;0.96;79.13;102273.00;1910050;75;20235;-62
2021/10/29 03:29:58;;;;;;;;;;;;;;;0.93;79.19;102280.27;1910105;75;20157;-62
2021/10/29 03:32:26;;;;;;;;;;;;;;;0.91;79.34;102284.53;1910129;75;20115;-63
2021/10/29 03:34:54;;;;;;;;;;;;;;;0.92;79.29;102277.63;1910227;75;20120;-61
2021/10/29 03:37:57;;;;;;;;;;;;;;;0.95;78.90;102282.47;1910113;75;20115;-65
2021/10/29 03:45:49;;;;;;;;;;;;;;;1.01;78.73;102284.34;1910047;74;20220;-64
2021/10/29 03:48:15;;;;;;;;;;;;;;;1.01;78.97;102287.36;1919283;74;20143;-63
2021/10/29 03:50:46;;;;;;;;;;;;;;;0.97;79.15;102283.81;1938409;74;20132;-63
2021/10/29 03:55:44;;;;;;;;;;;;;;;0.90;79.23;102285.36;1913104;74;20143;-61
2021/10/29 03:58:12;;;;;;;;;;;;;;;0.86;79.35;102290.45;1938762;74;20121;-61
2021/10/29 04:00:40;;;;;;;;;;;;;;;0.83;79.45;102287.77;1938512;74;20147;-62
2021/10/29 04:03:08;;;;;;;;;;;;;;;0.84;79.30;102287.80;1938579;74;20100;-62
2021/10/29 04:05:36;;;;;;;;;;;;;;;0.85;79.34;102288.67;1938643;73;20160;-61
2021/10/29 04:08:04;;;;;;;;;;;;;;;0.85;79.49;102291.27;1938772;74;20113;-61
2021/10/29 04:10:32;;;;;;;;;;;;;;;0.82;79.63;102286.02;1938588;74;20147;-61
2021/10/29 04:13:03;;;;;;;;;;;;;;;0.80;79.72;102290.30;1938618;74;20113;-61
2021/10/29 04:15:30;;;;;;;;;;;;;;;0.78;79.63;102291.55;1938600;74;20219;-62
2021/10/29 04:17:58;;;;;;;;;;;;;;;0.79;79.69;102295.01;1938624;74;20109;-63
2021/10/29 04:20:26;;;;;;;;;;;;;;;0.80;79.74;102295.48;1938625;74;20121;-65
2021/10/29 04:22:54;;;;;;;;;;;;;;;0.82;79.55;102295.97;1938591;74;20142;-64
2021/10/29 04:25:22;;;;;;;;;;;;;;;0.84;79.62;102294.29;1938587;74;20117;-64
2021/10/29 04:27:57;;;;;;;;;;;;;;;0.87;79.40;102292.22;1938512;74;20148;-65
2021/10/29 04:30:22;;;;;;;;;;;;;;;0.88;79.14;102288.77;1937786;74;20121;-65
2021/10/29 04:32:49;;;;;;;;;;;;;;;0.93;79.07;102292.36;1938630;74;20113;-65
2021/10/29 04:35:17;;;;;;;;;;;;;;;1.01;78.89;102291.25;1938602;74;20133;-65
2021/10/29 04:37:45;;;;;;;;;;;;;;;1.05;78.81;102293.98;1938645;74;20105;-66
2021/10/29 04:40:13;;;;;;;;;;;;;;;1.09;78.53;102295.80;1938533;74;20158;-67
2021/10/29 04:42:41;;;;;;;;;;;;;;;1.17;78.34;102304.20;1938689;74;20143;-67
2021/10/29 04:45:09;;;;;;;;;;;;;;;1.22;78.14;102305.16;1938737;74;20121;-67
2021/10/29 04:47:37;;;;;;;;;;;;;;;1.27;77.94;102307.46;1938599;74;20155;-67
2021/10/29 04:50:06;;;;;;;;;;;;;;;1.30;77.87;102314.03;1913320;74;20200;-67
2021/10/29 04:52:34;;;;;;;;;;;;;;;1.37;77.73;102310.75;1910067;75;20415;-67
2021/10/29 04:55:02;;;;;;;;;;;;;;;1.46;77.64;102314.00;1910024;75;20195;-66
2021/10/29 04:57:30;;;;;;;;;;;;;;;1.52;77.63;102318.02;1910080;75;20115;-66
2021/10/29 04:59:59;;;;;;;;;;;;;;;1.57;77.77;102312.92;1910059;75;20153;-67
2021/10/29 05:02:27;;;;;;;;;;;;;;;1.65;77.75;102319.19;1910028;75;20139;-66
2021/10/29 05:04:55;;;;;;;;;;;;;;;1.71;77.73;102325.81;1910073;75;20115;-68
2021/10/29 05:07:22;;;;;;;;;;;;;;;1.88;77.66;102327.09;1910011;74;20103;-60
2021/10/29 05:09:50;;;;;;;;;;;;;;;2.11;77.51;102331.91;1910054;75;20115;-58
2021/10/29 05:12:18;;;;;;;;;;;;;;;2.42;77.34;102329.95;1910094;75;20103;-58
2021/10/29 05:14:45;;;;;;;;;;;;;;;2.68;76.93;102331.32;1910053;75;20196;-59
2021/10/29 05:17:13;;;;;;;;;;;;;;;2.88;76.43;102330.40;1910056;75;20146;-58
2021/10/29 05:19:41;;;;;;;;;;;;;;;3.16;75.38;102324.81;1910057;75;20115;-59
2021/10/29 05:22:09;;;;;;;;;;;;;;;3.51;74.20;102321.47;1909963;75;20225;-59
2021/10/29 05:24:38;;;;;;;;;;;;;;;3.97;72.90;102326.48;1909997;75;20115;-58
2021/10/29 05:27:06;;;;;;;;;;;;;;;4.50;72.04;102329.30;1910078;75;20188;-59
2021/10/29 05:29:33;;;;;;;;;;;;;;;5.02;70.94;102330.73;1910037;75;20119;-58
2021/10/29 05:32:02;;;;;;;;;;;;;;;5.50;69.68;102330.28;1910089;75;20157;-59
2021/10/29 05:34:30;;;;;;;;;;;;;;;5.99;69.01;102335.84;1909969;75;20190;-59
2021/10/29 05:36:58;;;;;;;;;;;;;;;6.50;69.04;102329.09;1910096;75;20119;-58
2021/10/29 05:39:25;;;;;;;;;;;;;;;6.93;68.04;102325.70;1910140;75;20146;-59
2021/10/29 05:41:53;;;;;;;;;;;;;;;7.29;65.93;102328.80;1910175;75;20114;-59
2021/10/29 05:44:22;;;;;;;;;;;;;;;7.52;64.45;102330.52;1910120;75;20122;-58
2021/10/29 05:46:50;;;;;;;;;;;;;;;7.89;63.97;102331.78;1910129;75;20107;-59
2021/10/29 05:49:18;;;;;;;;;;;;;;;8.36;63.32;102330.75;1910055;74;20119;-58
2021/10/29 05:51:53;;;;;;;;;;;;;;;8.85;62.94;102332.27;1910135;75;20162;-58
2021/10/29 05:54:40;;;;;;;;;;;;;;;9.38;62.56;102321.79;1907990;75;20216;-58
2021/10/29 05:57:24;;;;;;;;;;;;;;;9.79;61.12;102326.22;1938679;73;20121;-58
2021/10/29 05:59:52;;;;;;;;;;;;;;;10.53;61.11;102325.37;1938795;74;20109;-58
2021/10/29 06:02:21;;;;;;;;;;;;;;;11.17;61.01;102319.15;1938752;74;20151;-58
2021/10/29 06:04:51;;;;;;;;;;;;;;;11.73;59.94;102332.70;1938853;74;20140;-58
2021/10/29 06:07:38;;;;;;;;;;;;;;;12.04;58.51;102331.70;1905245;74;20410;-58
2021/10/29 06:10:07;;;;;;;;;;;;;;;12.39;57.52;102323.96;1914730;75;20518;-58
2021/10/29 06:12:37;;;;;;;;;;;;;;;12.52;55.97;102322.78;1916809;75;20111;-58
2021/10/29 06:15:06;;;;;;;;;;;;;;;12.67;54.73;102326.86;1916907;75;20114;-58
2021/10/29 06:17:34;;;;;;;;;;;;;;;12.86;54.38;102327.33;1916766;74;20114;-58
2021/10/29 06:20:02;;;;;;;;;;;;;;;12.95;51.78;102327.11;1916828;75;20122;-57
2021/10/29 06:22:37;;;;;;;;;;;;;;;13.32;51.40;102324.46;1916709;75;20149;-58
2021/10/29 06:30:28;;;;;;;;;;;;;;;14.91;50.88;102323.95;1916920;75;20126;-60
2021/10/29 06:32:56;;;;;;;;;;;;;;;15.53;50.29;102325.88;1916674;75;20141;-60
2021/10/29 06:35:24;;;;;;;;;;;;;;;15.86;50.23;102318.56;1916794;75;20153;-60
2021/10/29 06:37:52;;;;;;;;;;;;;;;16.34;49.62;102319.42;1916862;75;20149;-59
2021/10/29 06:40:20;;;;;;;;;;;;;;;16.58;47.69;102321.16;1916772;75;20106;-60
2021/10/29 06:42:55;;;;;;;;;;;;;;;16.76;46.87;102322.67;1916761;75;20102;-58
2021/10/29 07:02:13;;;;;;;;;;;;;;;20.00;45.75;102313.44;1916790;75;20197;-57
2021/10/29 07:04:40;;;;;;;;;;;;;;;20.77;45.38;102325.27;1913406;75;20170;-57
2021/10/29 07:40:16;;;;;;;;;;;;;;;24.07;37.35;102304.28;1919718;75;20141;-57
2021/10/29 07:42:55;;;;;;;;;;;;;;;24.19;36.22;102308.75;1919559;75;20186;-57
2021/10/29 07:45:21;;;;;;;;;;;;;;;24.49;36.47;102306.14;1919157;75;20112;-57
2021/10/29 07:47:50;;;;;;;;;;;;;;;24.71;35.69;102305.94;1919369;75;20118;-57
2021/10/29 07:50:18;;;;;;;;;;;;;;;24.94;33.68;102310.47;1919709;75;20201;-57
2021/10/29 07:52:47;;;;;;;;;;;;;;;24.65;33.53;102304.07;1919603;75;20377;-57
2021/10/29 07:55:16;;;;;;;;;;;;;;;24.76;33.88;102302.42;1919592;74;20122;-57
2021/10/29 07:57:46;;;;;;;;;;;;;;;25.04;34.40;102299.35;1919555;75;20118;-57
2021/10/29 08:00:15;;;;;;;;;;;;;;;25.04;32.27;102306.58;1919648;75;20408;-57
2021/10/29 08:02:45;;;;;;;;;;;;;;;24.90;30.98;102300.91;1919564;75;20169;-57
2021/10/29 08:05:13;;;;;;;;;;;;;;;24.93;31.83;102297.96;1918767;75;20137;-57
2021/10/29 08:07:41;;;;;;;;;;;;;;;25.31;32.70;102298.26;1919539;74;20148;-57
2021/10/29 08:10:10;;;;;;;;;;;;;;;25.55;31.24;102304.08;1919596;75;20106;-57
2021/10/29 08:12:39;;;;;;;;;;;;;;;25.56;30.57;102297.69;1919540;75;20389;-57
2021/10/29 08:15:08;;;;;;;;;;;;;;;25.25;29.67;102294.70;1919754;75;20373;-57
2021/10/29 08:17:36;;;;;;;;;;;;;;;24.97;27.95;102301.28;1919592;75;20111;-57
2021/10/29 08:20:05;;;;;;;;;;;;;;;25.03;29.34;102303.04;1919482;75;20144;-56
2021/10/29 08:22:35;;;;;;;;;;;;;;;25.29;29.01;102296.17;1919591;75;20447;-57
2021/10/29 08:25:04;;;;;;;;;;;;;;;25.48;29.16;102293.39;1919544;75;20158;-58
2021/10/29 08:27:32;;;;;;;;;;;;;;;25.88;28.65;102291.61;1919474;75;20388;-58
2021/10/29 08:30:00;;;;;;;;;;;;;;;25.95;28.46;102290.14;1919598;75;20145;-59
2021/10/29 08:32:28;;;;;;;;;;;;;;;25.95;27.98;102292.84;1919500;75;20108;-58
2021/10/29 08:34:57;;;;;;;;;;;;;;;26.20;28.87;102291.73;1919602;75;20114;-59
2021/10/29 08:37:28;;;;;;;;;;;;;;;26.48;28.53;102287.61;1919600;75;20108;-59
2021/10/29 08:39:54;;;;;;;;;;;;;;;26.74;28.28;102285.50;1919320;75;20191;-60
2021/10/29 08:42:22;;;;;;;;;;;;;;;26.70;28.08;102288.58;1919742;74;20115;-59
2021/10/29 08:44:50;;;;;;;;;;;;;;;26.98;28.48;102287.60;1919424;75;20106;-59
2021/10/29 08:47:21;;;;;;;;;;;;;;;27.25;27.41;102279.84;1919607;75;20126;-59
2021/10/29 08:49:48;;;;;;;;;;;;;;;27.06;27.59;102280.56;1919066;75;20106;-59
2021/10/29 08:52:21;;;;;;;;;;;;;;;27.30;27.51;102280.34;1919555;75;20106;-60
2021/10/29 08:54:46;;;;;;;;;;;;;;;27.41;27.53;102274.48;1919075;74;20142;-59
2021/10/29 08:57:14;;;;;;;;;;;;;;;27.55;26.20;102272.78;1919522;75;20118;-59
2021/10/29 08:59:44;;;;;;;;;;;;;;;27.28;26.37;102278.27;1919551;75;20114;-59
2021/10/29 09:02:16;;;;;;;;;;;;;;;27.22;27.08;102284.14;1919542;75;20102;-59
2021/10/29 09:04:49;;;;;;;;;;;;;;;27.48;27.24;102281.06;1919051;75;20106;-59
2021/10/29 09:07:33;;;;;;;;;;;;;;;27.54;26.36;102279.20;1918697;74;20149;-59
2021/10/29 09:32:03;;;;;;;;;;;;;;;27.27;26.14;102261.66;1916655;75;20131;-60
2021/10/29 09:34:31;;;;;;;;;;;;;;;27.58;26.33;102267.11;1916696;75;20119;-59
2021/10/29 09:36:59;;;;;;;;;;;;;;;27.69;26.22;102257.55;1916651;74;20114;-59
2021/10/29 09:39:29;;;;;;;;;;;;;;;27.51;25.90;102257.81;1915402;75;20118;-59
2021/10/29 09:42:05;;;;;;;;;;;;;;;27.29;26.23;102258.33;1913086;75;20126;-59
2021/10/29 09:44:41;;;;;;;;;;;;;;;27.20;26.20;102262.30;1916769;75;20110;-60
2021/10/29 09:47:09;;;;;;;;;;;;;;;27.06;26.10;102264.34;1916764;75;20376;-60
2021/10/29 09:49:40;;;;;;;;;;;;;;;26.89;26.44;102265.79;1916282;75;20110;-59
2021/10/29 09:55:13;;;;;;;;;;;;;;;27.73;26.77;102253.58;1916705;75;20162;-59
2021/10/29 09:57:29;;;;;;;;;;;;;;;27.38;25.87;102255.83;1914177;75;20115;-59
2021/10/29 09:59:57;;;;;;;;;;;;;;;26.42;25.70;102258.42;1916704;75;20145;-59
2021/10/29 10:02:26;;;;;;;;;;;;;;;25.12;27.35;102261.53;1916622;75;20107;-59
2021/10/29 10:04:55;;;;;;;;;;;;;;;24.75;27.55;102260.29;1916586;75;20149;-58
2021/10/29 10:07:27;;;;;;;;;;;;;;;24.08;28.25;102256.20;1916588;75;20261;-58
2021/10/29 10:09:57;;;;;;;;;;;;;;;24.18;28.42;102249.66;1916578;75;20388;-59
2021/10/29 10:12:26;;;;;;;;;;;;;;;24.83;28.25;102252.50;1916733;75;20122;-59
2021/10/29 10:14:56;;;;;;;;;;;;;;;25.11;27.58;102251.74;1916655;75;20166;-59
2021/10/29 10:17:24;;;;;;;;;;;;;;;24.90;27.21;102249.72;1916877;75;20177;-59
2021/10/29 10:19:56;;;;;;;;;;;;;;;24.12;28.10;102248.28;1916584;75;20131;-59
2021/10/29 10:22:26;;;;;;;;;;;;;;;23.88;28.20;102251.80;1916365;75;20142;-59
2021/10/29 10:24:58;;;;;;;;;;;;;;;24.47;28.12;102250.20;1915327;75;20123;-60
2021/10/29 10:27:48;;;;;;;;;;;;;;;24.76;27.99;102257.48;1916389;75;20155;-59
2021/10/29 10:30:16;;;;;;;;;;;;;;;23.78;28.87;102251.19;1917030;75;20145;-59
2021/10/29 10:41:06;;;;;;;;;;;;;;;22.96;30.45;102256.77;1916680;75;20389;-61
2021/10/29 10:46:05;;;;;;;;;;;;;;;22.44;31.46;102257.08;1916767;75;20138;-59
2021/10/29 10:48:32;;;;;;;;;;;;;;;22.47;31.50;102259.57;1916220;75;20130;-59
2021/10/29 10:51:21;;;;;;;;;;;;;;;22.38;31.46;102263.34;1916759;75;20102;-60
2021/10/29 10:53:54;;;;;;;;;;;;;;;21.89;32.20;102268.17;1916661;75;20118;-59
2021/10/29 10:59:12;;;;;;;;;;;;;;;20.36;33.83;102272.27;1916765;75;20427;-59
2021/10/29 11:02:07;;;;;;;;;;;;;;;19.78;34.65;102266.09;1913883;75;20150;-59
2021/10/29 11:09:56;;;;;;;;;;;;;;;18.66;36.23;102268.62;1918827;75;20157;-60
2021/10/29 11:12:24;;;;;;;;;;;;;;;18.41;36.52;102269.81;1919518;75;20110;-59
2021/10/29 11:14:54;;;;;;;;;;;;;;;18.20;36.95;102264.16;1919674;75;20099;-59
2021/10/29 11:17:42;;;;;;;;;;;;;;;18.02;37.33;102265.88;1909211;75;20141;-59
2021/10/29 11:20:12;;;;;;;;;;;;;;;17.91;37.58;102264.58;1919566;75;20153;-59
2021/10/29 11:22:44;;;;;;;;;;;;;;;17.85;37.85;102263.98;1919572;75;20440;-60
2021/10/29 11:25:13;;;;;;;;;;;;;;;17.79;37.98;102269.57;1919578;75;20106;-59
2021/10/29 11:27:42;;;;;;;;;;;;;;;17.78;38.15;102273.16;1919392;75;20377;-59
2021/10/29 11:30:10;;;;;;;;;;;;;;;17.70;38.37;102272.17;1919626;75;20392;-59
2021/10/29 11:32:38;;;;;;;;;;;;;;;17.53;38.69;102268.93;1919585;75;20118;-59
2021/10/29 11:35:06;;;;;;;;;;;;;;;17.43;39.01;102271.14;1919497;75;20099;-59
2021/10/29 11:37:39;;;;;;;;;;;;;;;17.32;39.27;102272.94;1919612;75;20194;-59
2021/10/29 11:40:05;;;;;;;;;;;;;;;17.22;39.59;102275.58;1919106;74;20161;-59
2021/10/29 11:42:33;;;;;;;;;;;;;;;17.08;39.81;102270.85;1919593;75;20161;-59
2021/10/29 11:45:03;;;;;;;;;;;;;;;16.97;40.13;102277.95;1919710;75;20150;-59
2021/10/29 11:47:32;;;;;;;;;;;;;;;16.89;40.29;102270.73;1919724;75;20103;-60
2021/10/29 11:50:07;;;;;;;;;;;;;;;16.83;40.53;102278.12;1919081;75;20185;-59
2021/10/29 11:52:36;;;;;;;;;;;;;;;16.77;40.70;102279.20;1919596;75;20164;-59
2021/10/29 11:55:06;;;;;;;;;;;;;;;16.71;40.95;102276.77;1919688;75;20440;-59
2021/10/29 11:57:46;;;;;;;;;;;;;;;16.65;41.42;102281.02;1918590;75;20177;-60
2021/10/29 12:00:17;;;;;;;;;;;;;;;16.51;41.51;102282.44;1917382;75;20103;-60
2021/10/29 12:08:11;;;;;;;;;;;;;;;16.28;42.09;102279.80;1919521;74;20145;-59
2021/10/29 12:10:44;;;;;;;;;;;;;;;16.33;42.23;102288.47;1919484;74;20110;-60
2021/10/29 12:13:11;;;;;;;;;;;;;;;16.31;42.27;102289.86;1919864;75;20392;-59
2021/10/29 12:15:40;;;;;;;;;;;;;;;16.19;42.81;102289.88;1919464;75;20118;-59
2021/10/29 12:18:10;;;;;;;;;;;;;;;16.14;42.91;102291.84;1919271;75;20145;-58
2021/10/29 12:20:48;;;;;;;;;;;;;;;16.09;43.07;102286.30;1919617;75;20111;-59
2021/10/29 12:23:14;;;;;;;;;;;;;;;16.06;43.33;102285.92;1918086;74;20119;-59
2021/10/29 12:30:58;;;;;;;;;;;;;;;15.98;43.89;102292.00;1919867;75;20118;-58
2021/10/29 12:53:00;;;;;;;;;;;;;;;15.52;44.95;102321.03;1919396;75;20115;-59
2021/10/29 13:03:23;;;;;;;;;;;;;;;15.23;45.56;102315.38;1919550;75;20147;-59
2021/10/29 13:05:55;;;;;;;;;;;;;;;15.19;45.67;102315.09;1919041;75;20102;-59
2021/10/29 13:08:24;;;;;;;;;;;;;;;15.18;45.78;102315.99;1919552;75;20119;-59
2021/10/29 13:10:53;;;;;;;;;;;;;;;15.19;45.70;102319.06;1904339;74;20115;-59
2021/10/29 13:13:33;;;;;;;;;;;;;;;15.19;45.76;102311.11;1900417;75;20502;-59
2021/10/29 13:16:02;;;;;;;;;;;;;;;15.13;45.76;102317.95;1899523;75;20107;-59
2021/10/29 13:18:35;;;;;;;;;;;;;;;15.05;45.82;102316.89;1899270;75;20124;-59
2021/10/29 13:21:28;;;;;;;;;;;;;;;14.95;45.86;102315.44;1899171;75;20123;-58
2021/10/29 13:28:56;;;;;;;;;;;;;;;14.60;46.46;102316.09;1900426;75;20103;-59
2021/10/29 13:55:51;;;;;;;;;;;;;;;13.94;49.09;102331.23;1862099;77;20166;-59
2021/10/29 14:00:56;;;;;;;;;;;;;;;13.72;49.36;102335.77;1862234;77;20145;-59
2021/10/29 14:03:40;;;;;;;;;;;;;;;13.66;49.13;102329.33;1859897;76;20135;-60
2021/10/29 14:30:33;;;;;;;;;;;;;;;12.51;50.66;102338.23;1783595;80;20339;-62
2021/10/29 14:33:09;;;;;;;;;;;;;;;12.40;50.95;102342.42;1859494;75;20146;-61
2021/10/29 14:35:42;;;;;;;;;;;;;;;12.31;51.12;102343.94;1905767;75;20135;-66
2021/10/29 14:38:21;;;;;;;;;;;;;;;12.14;51.34;102345.61;1907429;75;20115;-62
2021/10/29 14:43:20;;;;;;;;;;;;;;;11.89;51.70;102346.03;1862817;76;20404;-67
2021/10/29 14:49:26;;;;;;;;;;;;;;;11.72;52.04;102356.91;1855262;77;20114;-64
2021/10/29 15:18:26;;;;;;;;;;;;;;;10.84;53.50;102378.97;1862786;77;20145;-66
2021/10/29 15:29:03;;;;;;;;;;;;;;;10.50;53.91;102384.70;1862706;76;20191;-60
2021/10/29 15:42:19;;;;;;;;;;;;;;;10.26;54.29;102393.28;1839699;77;20158;-65
2021/10/29 15:44:36;;;;;;;;;;;;;;;10.23;54.30;102395.48;1848994;76;20189;-63
2021/10/29 15:47:06;;;;;;;;;;;;;;;10.20;54.40;102396.85;1844453;76;20447;-62
2021/10/29 15:49:36;;;;;;;;;;;;;;;10.16;54.48;102404.78;1845741;76;20200;-65
2021/10/29 15:52:16;;;;;;;;;;;;;;;10.10;54.62;102407.49;1832759;78;20136;-63
2021/10/29 15:54:51;;;;;;;;;;;;;;;10.05;54.78;102414.09;1835836;78;20124;-63
2021/10/29 15:57:28;;;;;;;;;;;;;;;9.94;55.00;102411.60;1826434;78;20154;-62
2021/10/29 15:59:55;;;;;;;;;;;;;;;9.87;55.24;102415.17;1835710;76;20117;-64
2021/10/29 16:18:50;;;;;;;;;;;;;;;9.58;55.95;102428.12;1849294;77;20238;-62
2021/10/29 16:21:18;;;;;;;;;;;;;;;9.55;56.08;102434.70;1850561;77;20146;-62
2021/10/29 16:23:46;;;;;;;;;;;;;;;9.57;56.41;102439.55;1853422;77;20123;-65
2021/10/29 16:26:17;;;;;;;;;;;;;;;9.55;56.35;102441.28;1853530;77;20145;-67
2021/10/29 16:28:44;;;;;;;;;;;;;;;9.51;56.44;102436.94;1857588;76;20123;-62
2021/10/29 16:31:13;;;;;;;;;;;;;;;9.47;56.59;102436.54;1856412;77;20115;-63
2021/10/29 16:33:43;;;;;;;;;;;;;;;9.44;56.68;102432.60;1851627;76;20177;-64
2021/10/29 16:36:10;;;;;;;;;;;;;;;9.42;56.67;102437.00;1849969;77;20205;-65
2021/10/29 16:38:40;;;;;;;;;;;;;;;9.37;56.76;102441.00;1836996;77;20389;-64
2021/10/29 16:41:07;;;;;;;;;;;;;;;9.30;57.04;102442.37;1835932;77;20119;-59
2021/10/29 16:43:36;;;;;;;;;;;;;;;9.25;57.44;102447.19;1844097;78;20124;-59
2021/10/29 16:46:05;;;;;;;;;;;;;;;9.19;57.44;102451.18;1833736;77;20154;-59
2021/10/29 16:48:33;;;;;;;;;;;;;;;9.15;57.58;102449.88;1820024;79;20428;-59
2021/10/29 16:51:01;;;;;;;;;;;;;;;9.10;57.46;102452.99;1823061;77;20107;-59
2021/10/29 16:53:29;;;;;;;;;;;;;;;9.09;57.46;102453.41;1836019;78;20123;-59
2021/10/29 16:55:56;;;;;;;;;;;;;;;9.11;57.47;102458.25;1833436;78;20107;-61
2021/10/29 16:58:24;;;;;;;;;;;;;;;9.09;57.45;102467.87;1852419;76;20217;-60
2021/10/29 17:00:52;;;;;;;;;;;;;;;9.03;57.54;102464.83;1829874;77;20119;-60
2021/10/29 17:03:20;;;;;;;;;;;;;;;8.99;57.64;102467.50;1835943;78;20158;-59
2021/10/29 17:05:48;;;;;;;;;;;;;;;8.95;57.74;102468.40;1834441;77;20119;-59
2021/10/29 17:08:16;;;;;;;;;;;;;;;8.89;57.75;102460.97;1819902;78;20155;-60
2021/10/29 17:10:44;;;;;;;;;;;;;;;8.91;57.69;102460.97;1820381;77;20123;-59
2021/10/29 17:13:12;;;;;;;;;;;;;;;8.85;57.83;102464.50;1820004;79;20146;-59
2021/10/29 17:15:40;;;;;;;;;;;;;;;8.79;57.87;102464.50;1820402;77;20119;-62
2021/10/29 17:18:08;;;;;;;;;;;;;;;8.77;57.98;102468.03;1820056;79;20119;-60
2021/10/29 17:20:56;;;;;;;;;;;;;;;8.72;58.07;102465.85;1871549;77;20468;-59
2021/10/29 17:23:24;;;;;;;;;;;;;;;8.67;58.13;102465.44;1871313;77;20105;-61
2021/10/29 17:25:52;;;;;;;;;;;;;;;8.58;58.26;102464.16;1871221;77;20125;-62